タシュケント の空港の天気 - METARとTAF

タシケント空港 ( UTTT / TAS ) - ウズベキスタン タシュケント
飛行場実況気象(Metar)
観測時間08/05 03:00 UZT (08/04 22:00 UTC)
風向・風速東北東 4m/s
視程10km以上
天気現象
なし
気温25℃
湿度39%
気圧1003hPa
METARUTTT 042200Z 06008KT CAVOK 25/10 Q1003 R08R/CLRD70 NOSIG
過去の天気等 Google飛行場航空写真 Wunderground天気予報

過去48時間のMETAR

飛行場予報(TAF)
発表時間: 8/04 22:00 UZT (8/04 17:00 UTC)
予報対象時間: 4日23時 UZT ~ 5日23時 UZT
風向・風速西北西 5m/s
視程7000m
なし
TAF UTTT 041700Z 0418/0518 30010KT 7000 NSC TX37/0510Z